createdAt,value
2018-05-18T00:01:57.822Z,11.30
2018-05-18T00:04:24.319Z,11.30
2018-05-18T00:06:50.507Z,11.30
2018-05-18T00:09:19.604Z,11.40
2018-05-18T00:11:45.775Z,11.40
2018-05-18T00:14:12.505Z,11.40
2018-05-18T00:16:38.665Z,11.40
2018-05-18T00:19:04.964Z,11.30
2018-05-18T00:21:31.245Z,11.30
2018-05-18T00:23:57.632Z,11.20
2018-05-18T00:26:23.792Z,11.20
2018-05-18T00:28:50.034Z,11.20
2018-05-18T00:31:16.337Z,11.20
2018-05-18T00:33:42.676Z,11.10
2018-05-18T00:36:08.933Z,11.00
2018-05-18T00:38:35.244Z,11.00
2018-05-18T00:41:01.464Z,11.00
2018-05-18T00:43:27.651Z,11.00
2018-05-18T00:45:57.720Z,10.90
2018-05-18T00:48:23.837Z,10.90
2018-05-18T00:50:49.941Z,11.00
2018-05-18T00:53:16.095Z,11.00
2018-05-18T00:55:42.446Z,11.10
2018-05-18T00:58:08.679Z,11.10
2018-05-18T01:00:34.783Z,11.10
2018-05-18T01:03:00.957Z,11.00
2018-05-18T01:05:27.054Z,11.10
2018-05-18T01:07:53.775Z,11.10
2018-05-18T01:10:20.113Z,11.00
2018-05-18T01:12:46.248Z,11.10
2018-05-18T01:15:12.429Z,11.20
2018-05-18T01:17:41.717Z,11.30
2018-05-18T01:20:07.867Z,11.40
2018-05-18T01:22:34.110Z,11.50
2018-05-18T01:25:00.469Z,11.60
2018-05-18T01:27:27.378Z,11.60
2018-05-18T01:29:53.781Z,11.50
2018-05-18T01:32:19.930Z,11.60
2018-05-18T01:34:46.076Z,11.60
2018-05-18T01:37:12.506Z,11.50
2018-05-18T01:39:39.672Z,11.50
2018-05-18T01:42:05.841Z,11.50
2018-05-18T01:44:32.193Z,11.30
2018-05-18T01:47:01.414Z,11.30
2018-05-18T01:49:28.357Z,11.30
2018-05-18T01:51:54.484Z,11.20
2018-05-18T01:54:20.693Z,11.30
2018-05-18T01:56:46.879Z,11.40
2018-05-18T01:59:17.009Z,11.40
2018-05-18T02:01:43.176Z,11.50
2018-05-18T02:04:09.721Z,11.40
2018-05-18T02:06:41.062Z,11.40
2018-05-18T02:09:07.200Z,11.30
2018-05-18T02:11:34.085Z,11.30
2018-05-18T02:14:00.247Z,11.30
2018-05-18T02:16:26.363Z,11.30
2018-05-18T02:18:52.573Z,11.50
2018-05-18T02:21:18.719Z,11.60
2018-05-18T02:23:45.632Z,11.60
2018-05-18T02:26:11.788Z,11.60
2018-05-18T02:28:37.938Z,11.60
2018-05-18T02:31:04.077Z,11.60
2018-05-18T02:33:30.189Z,11.50
2018-05-18T02:35:56.581Z,11.40
2018-05-18T02:38:22.728Z,11.40
2018-05-18T02:40:49.249Z,11.30
2018-05-18T02:43:15.389Z,11.20
2018-05-18T02:45:41.616Z,11.00
2018-05-18T02:48:07.877Z,10.60
2018-05-18T02:50:34.933Z,10.40
2018-05-18T02:53:02.300Z,10.40
2018-05-18T02:55:28.551Z,10.40
2018-05-18T02:57:54.665Z,10.40
2018-05-18T03:00:20.863Z,10.30
2018-05-18T03:02:47.732Z,10.30
2018-05-18T03:05:13.912Z,10.30
2018-05-18T03:07:40.410Z,10.30
2018-05-18T03:10:06.629Z,10.30
2018-05-18T03:12:32.887Z,10.20
2018-05-18T03:14:59.033Z,10.20
2018-05-18T03:17:25.265Z,10.10
2018-05-18T03:19:52.215Z,9.80
2018-05-18T03:22:19.136Z,9.70
2018-05-18T03:24:45.278Z,9.70
2018-05-18T03:27:12.478Z,9.80
2018-05-18T03:29:38.638Z,9.70
2018-05-18T03:32:04.743Z,9.70
2018-05-18T03:34:31.295Z,9.70
2018-05-18T03:36:57.429Z,9.80
2018-05-18T03:39:24.022Z,9.70
2018-05-18T03:41:50.186Z,9.70
2018-05-18T03:44:16.342Z,9.60
2018-05-18T03:46:42.486Z,9.50
2018-05-18T03:49:08.729Z,9.50
2018-05-18T03:51:34.787Z,9.60
2018-05-18T03:54:00.989Z,9.70
2018-05-18T03:56:27.116Z,9.80
2018-05-18T03:58:53.379Z,9.90
2018-05-18T04:01:31.847Z,9.90
2018-05-18T04:04:10.725Z,9.90
2018-05-18T04:06:49.948Z,10.20
2018-05-18T04:09:16.131Z,10.20
2018-05-18T04:11:42.269Z,10.40
2018-05-18T04:14:08.421Z,10.40
2018-05-18T04:16:34.593Z,10.30
2018-05-18T04:19:00.745Z,10.10
2018-05-18T04:21:27.458Z,10.20
2018-05-18T04:23:53.639Z,10.10
2018-05-18T04:26:19.741Z,10.00
2018-05-18T04:28:45.859Z,10.00
2018-05-18T04:31:11.967Z,10.00
2018-05-18T04:33:38.499Z,9.90
2018-05-18T04:36:04.960Z,10.00
2018-05-18T04:38:31.075Z,10.00
2018-05-18T04:40:57.202Z,10.30
2018-05-18T04:43:23.399Z,10.50
2018-05-18T04:45:49.486Z,10.40
2018-05-18T04:48:15.649Z,10.40
2018-05-18T04:50:41.814Z,10.20
2018-05-18T04:53:14.622Z,10.00
2018-05-18T04:55:40.817Z,9.60
2018-05-18T04:58:07.248Z,9.50
2018-05-18T05:00:33.407Z,9.60
2018-05-18T05:02:59.536Z,9.60
2018-05-18T05:05:25.748Z,9.70
2018-05-18T05:07:51.982Z,9.60
2018-05-18T05:10:18.225Z,9.50
2018-05-18T05:12:44.444Z,9.60
2018-05-18T05:15:11.141Z,9.70
2018-05-18T05:17:37.207Z,9.80
2018-05-18T05:20:03.368Z,9.80
2018-05-18T05:22:29.659Z,9.80
2018-05-18T05:24:56.205Z,9.90
2018-05-18T05:27:23.222Z,9.80
2018-05-18T05:29:49.404Z,9.80
2018-05-18T05:32:15.562Z,9.80
2018-05-18T05:34:41.750Z,10.00
2018-05-18T05:37:07.975Z,10.10
2018-05-18T05:39:34.207Z,10.10
2018-05-18T05:42:00.391Z,10.30
2018-05-18T05:44:26.577Z,10.50
2018-05-18T05:46:52.817Z,10.50
2018-05-18T05:49:18.991Z,10.40
2018-05-18T05:51:48.914Z,10.60
2018-05-18T05:54:15.853Z,10.60
2018-05-18T05:56:42.174Z,10.60
2018-05-18T05:59:09.394Z,10.60
2018-05-18T06:01:35.697Z,10.70
2018-05-18T06:04:02.016Z,10.80
2018-05-18T06:06:28.235Z,11.00
2018-05-18T06:08:54.445Z,10.90
2018-05-18T06:11:20.591Z,11.10
2018-05-18T06:13:48.400Z,11.10
2018-05-18T06:16:14.919Z,11.10
2018-05-18T06:18:41.256Z,11.10
2018-05-18T06:21:07.389Z,11.30
2018-05-18T06:26:23.611Z,11.00
2018-05-18T06:28:50.104Z,11.00
2018-05-18T06:31:16.175Z,11.00
2018-05-18T06:33:42.654Z,10.80
2018-05-18T06:36:08.809Z,10.90
2018-05-18T06:38:34.979Z,10.90
2018-05-18T06:41:01.142Z,11.00
2018-05-18T06:43:30.822Z,10.80
2018-05-18T06:45:58.948Z,10.40
2018-05-18T06:48:25.145Z,10.40
2018-05-18T06:50:51.297Z,10.70
2018-05-18T06:53:17.511Z,11.10
2018-05-18T06:55:43.833Z,11.20
2018-05-18T06:58:09.954Z,11.20
2018-05-18T07:00:36.080Z,11.00
2018-05-18T07:03:02.293Z,10.80
2018-05-18T07:05:28.576Z,10.90
2018-05-18T07:07:54.735Z,11.00
2018-05-18T07:10:20.844Z,11.10
2018-05-18T07:12:47.090Z,11.20
2018-05-18T07:15:14.030Z,11.40
2018-05-18T07:17:40.180Z,11.40
2018-05-18T07:20:06.389Z,11.70
2018-05-18T07:22:32.511Z,12.10
2018-05-18T07:24:59.570Z,12.20
2018-05-18T07:27:25.785Z,12.20
2018-05-18T07:29:51.897Z,12.50
2018-05-18T07:32:18.484Z,12.40
2018-05-18T07:34:44.717Z,12.40
2018-05-18T07:37:10.931Z,12.50
2018-05-18T07:39:37.167Z,12.70
2018-05-18T07:42:03.318Z,12.80
2018-05-18T07:44:29.509Z,13.00
2018-05-18T07:46:55.672Z,13.30
2018-05-18T07:49:21.898Z,13.50
2018-05-18T07:51:48.379Z,13.60
2018-05-18T07:54:14.667Z,13.60
2018-05-18T07:56:41.278Z,13.60
2018-05-18T07:59:07.467Z,13.80
2018-05-18T08:01:34.017Z,13.90
2018-05-18T08:04:00.150Z,14.00
2018-05-18T08:06:26.305Z,14.20
2018-05-18T08:08:52.618Z,14.50
2018-05-18T08:11:19.000Z,14.50
2018-05-18T08:13:45.289Z,14.70
2018-05-18T08:16:11.649Z,14.60
2018-05-18T08:18:37.819Z,14.50
2018-05-18T08:21:04.189Z,14.40
2018-05-18T08:23:39.413Z,14.40
2018-05-18T08:26:05.777Z,14.40
2018-05-18T08:28:44.165Z,14.60
2018-05-18T08:31:10.575Z,14.70
2018-05-18T08:33:37.435Z,14.40
2018-05-18T08:36:03.729Z,14.40
2018-05-18T08:38:30.278Z,14.20
2018-05-18T08:43:28.888Z,14.30
2018-05-18T08:45:55.013Z,14.50
2018-05-18T08:48:21.197Z,14.50
2018-05-18T08:50:50.123Z,14.60
2018-05-18T08:53:16.244Z,14.60
2018-05-18T08:55:42.759Z,14.50
2018-05-18T08:58:08.973Z,14.50
2018-05-18T09:00:35.967Z,14.60
2018-05-18T09:03:02.479Z,14.60
2018-05-18T09:05:29.908Z,14.80
2018-05-18T09:07:56.105Z,14.90
2018-05-18T09:10:22.774Z,14.80
2018-05-18T09:12:49.654Z,14.80
2018-05-18T09:15:19.040Z,14.70
2018-05-18T09:17:45.299Z,14.90
2018-05-18T09:20:11.507Z,14.90
2018-05-18T09:22:37.640Z,14.90
2018-05-18T09:25:03.770Z,15.00
2018-05-18T09:27:30.667Z,15.30
2018-05-18T09:29:57.554Z,15.50
2018-05-18T09:32:23.700Z,15.60
2018-05-18T09:34:50.011Z,15.90
2018-05-18T09:37:16.190Z,15.70
2018-05-18T09:39:42.471Z,15.70
2018-05-18T09:42:08.748Z,16.00
2018-05-18T09:44:35.136Z,16.10
2018-05-18T09:47:01.439Z,16.20
2018-05-18T09:49:27.618Z,16.10
2018-05-18T09:51:54.512Z,16.50
2018-05-18T09:54:20.815Z,16.50
2018-05-18T09:56:47.062Z,16.60
2018-05-18T09:59:13.273Z,16.60
2018-05-18T10:01:39.700Z,16.70
2018-05-18T10:04:06.588Z,16.50
2018-05-18T10:06:32.806Z,16.50
2018-05-18T10:08:58.927Z,16.30
2018-05-18T10:11:25.153Z,16.10
2018-05-18T10:13:51.280Z,16.10
2018-05-18T10:16:17.509Z,16.30
2018-05-18T10:18:44.561Z,16.50
2018-05-18T10:21:10.911Z,16.90
2018-05-18T10:23:37.123Z,17.00
2018-05-18T10:26:03.352Z,17.10
2018-05-18T10:28:29.583Z,17.40
2018-05-18T10:30:55.933Z,17.60
2018-05-18T10:33:22.127Z,17.70
2018-05-18T10:35:48.351Z,17.80
2018-05-18T10:38:14.545Z,17.50
2018-05-18T10:40:40.813Z,17.50
2018-05-18T10:43:06.984Z,17.20
2018-05-18T10:45:33.169Z,17.50
2018-05-18T10:47:59.404Z,17.70
2018-05-18T10:50:25.540Z,17.80
2018-05-18T10:52:51.676Z,17.50
2018-05-18T10:55:17.941Z,17.60
2018-05-18T10:57:44.208Z,17.60
2018-05-18T11:00:10.438Z,17.70
2018-05-18T11:02:36.781Z,17.80
2018-05-18T11:05:02.856Z,18.10
2018-05-18T11:07:29.122Z,18.20
2018-05-18T11:09:58.784Z,17.80
2018-05-18T11:12:24.945Z,17.90
2018-05-18T11:14:51.179Z,18.10
2018-05-18T11:17:17.608Z,18.00
2018-05-18T11:19:45.930Z,18.00
2018-05-18T11:22:12.117Z,18.30
2018-05-18T11:24:38.305Z,18.60
2018-05-18T11:27:04.445Z,18.60
2018-05-18T11:29:31.274Z,18.50
2018-05-18T11:32:00.505Z,18.60
2018-05-18T11:34:28.277Z,18.70
2018-05-18T11:36:54.808Z,18.70
2018-05-18T11:39:20.941Z,18.70
2018-05-18T11:41:47.353Z,18.90
2018-05-18T11:44:14.209Z,18.80
2018-05-18T11:46:41.762Z,18.80
2018-05-18T11:49:07.954Z,18.80
2018-05-18T11:51:34.421Z,19.00
2018-05-18T11:54:00.850Z,19.10
2018-05-18T11:56:26.985Z,19.20
2018-05-18T11:58:53.118Z,19.00
2018-05-18T12:01:19.298Z,19.10
2018-05-18T12:03:45.532Z,19.00
2018-05-18T12:06:12.486Z,18.90
2018-05-18T12:08:38.728Z,18.90
2018-05-18T12:11:04.880Z,19.10
2018-05-18T12:13:31.088Z,19.30
2018-05-18T12:15:57.281Z,19.40
2018-05-18T12:18:23.464Z,19.50
2018-05-18T12:20:56.158Z,19.70
2018-05-18T12:23:23.143Z,19.70
2018-05-18T12:25:49.304Z,19.60
2018-05-18T12:28:15.443Z,19.70
2018-05-18T12:30:41.611Z,19.90
2018-05-18T12:33:08.041Z,19.90
2018-05-18T12:35:34.567Z,19.40
2018-05-18T12:38:01.479Z,19.70
2018-05-18T12:40:27.638Z,19.70
2018-05-18T12:42:58.876Z,19.70
2018-05-18T12:45:25.083Z,19.70
2018-05-18T12:47:51.255Z,19.60
2018-05-18T12:50:17.507Z,19.90
2018-05-18T12:52:43.765Z,20.00
2018-05-18T12:55:09.981Z,19.70
2018-05-18T12:57:38.759Z,19.90
2018-05-18T13:00:04.921Z,20.00
2018-05-18T13:02:31.830Z,20.30
2018-05-18T13:04:57.984Z,20.30
2018-05-18T13:07:24.467Z,20.30
2018-05-18T13:09:50.641Z,20.30
2018-05-18T13:12:16.738Z,20.30
2018-05-18T13:14:42.900Z,20.30
2018-05-18T13:17:09.239Z,20.30
2018-05-18T13:19:35.363Z,20.20
2018-05-18T13:22:02.185Z,20.40
2018-05-18T13:24:28.311Z,20.50
2018-05-18T13:26:58.618Z,20.70
2018-05-18T13:29:24.866Z,20.80
2018-05-18T13:31:51.886Z,20.70
2018-05-18T13:34:18.303Z,20.60
2018-05-18T13:36:44.501Z,20.50
2018-05-18T13:39:10.921Z,20.30
2018-05-18T13:41:37.015Z,20.30
2018-05-18T13:44:03.231Z,20.30
2018-05-18T13:46:29.874Z,20.40
2018-05-18T13:48:56.176Z,20.50
2018-05-18T13:51:22.425Z,20.50
2018-05-18T13:53:48.548Z,20.80
2018-05-18T13:56:14.714Z,20.80
2018-05-18T13:58:41.248Z,20.80
2018-05-18T14:01:07.606Z,20.60
2018-05-18T14:03:34.281Z,20.50
2018-05-18T14:06:00.471Z,20.40
2018-05-18T14:08:27.026Z,20.40
2018-05-18T14:10:53.205Z,20.60
2018-05-18T14:13:19.481Z,20.80
2018-05-18T14:15:45.735Z,20.70
2018-05-18T14:18:11.952Z,20.70
2018-05-18T14:20:38.101Z,20.80
2018-05-18T14:23:04.206Z,20.90
2018-05-18T14:25:30.385Z,20.80
2018-05-18T14:27:56.575Z,20.40
2018-05-18T14:30:22.830Z,20.50
2018-05-18T14:32:48.983Z,20.50
2018-05-18T14:35:15.103Z,20.40
2018-05-18T14:37:41.244Z,20.30
2018-05-18T14:40:07.349Z,20.50
2018-05-18T14:42:33.595Z,20.50
2018-05-18T14:44:59.777Z,20.50
2018-05-18T14:47:26.686Z,20.60
2018-05-18T14:49:53.237Z,20.60
2018-05-18T14:52:19.437Z,20.60
2018-05-18T14:54:45.792Z,20.80
2018-05-18T14:57:12.229Z,20.80
2018-05-18T14:59:38.353Z,20.80
2018-05-18T15:02:04.525Z,20.60
2018-05-18T15:04:30.705Z,20.50
2018-05-18T15:06:56.880Z,20.60
2018-05-18T15:09:23.037Z,20.60
2018-05-18T15:11:49.145Z,20.70
2018-05-18T15:14:15.318Z,20.70
2018-05-18T15:16:41.526Z,20.60
2018-05-18T15:19:08.000Z,20.50
2018-05-18T15:21:34.961Z,20.70
2018-05-18T15:24:01.204Z,20.60
2018-05-18T15:26:27.821Z,20.70
2018-05-18T15:28:53.916Z,20.70
2018-05-18T15:31:20.245Z,20.70
2018-05-18T15:33:50.153Z,20.60
2018-05-18T15:36:18.179Z,20.60
2018-05-18T15:38:45.706Z,20.40
2018-05-18T15:41:11.812Z,20.40
2018-05-18T15:43:38.126Z,20.50
2018-05-18T15:46:04.247Z,20.60
2018-05-18T15:48:30.409Z,20.70
2018-05-18T15:50:56.622Z,20.70
2018-05-18T15:53:22.768Z,20.70
2018-05-18T15:55:48.925Z,20.80
2018-05-18T15:58:15.800Z,20.70
2018-05-18T16:00:43.487Z,20.80
2018-05-18T16:03:09.620Z,20.70
2018-05-18T16:05:35.760Z,20.70
2018-05-18T16:08:01.861Z,20.50
2018-05-18T16:10:28.128Z,20.50
2018-05-18T16:12:54.341Z,20.50
2018-05-18T16:15:20.422Z,20.60
2018-05-18T16:17:47.502Z,20.50
2018-05-18T16:20:13.699Z,20.50
2018-05-18T16:22:39.791Z,20.50
2018-05-18T16:25:05.916Z,20.50
2018-05-18T16:27:32.923Z,20.50
2018-05-18T16:30:01.086Z,20.60
2018-05-18T16:32:29.605Z,20.40
2018-05-18T16:34:56.548Z,20.20
2018-05-18T16:37:22.720Z,20.10
2018-05-18T16:39:49.629Z,20.30
2018-05-18T16:42:15.832Z,20.20
2018-05-18T16:44:41.979Z,20.30
2018-05-18T16:47:08.241Z,20.30
2018-05-18T16:49:34.333Z,20.40
2018-05-18T16:52:00.421Z,20.30
2018-05-18T16:54:26.663Z,20.40
2018-05-18T16:56:53.134Z,20.20
2018-05-18T16:59:19.237Z,20.00
2018-05-18T17:01:45.408Z,19.80
2018-05-18T17:04:11.553Z,19.70
2018-05-18T17:06:38.021Z,19.70
2018-05-18T17:09:04.436Z,19.70
2018-05-18T17:11:30.535Z,19.60
2018-05-18T17:13:57.531Z,19.50
2018-05-18T17:16:23.828Z,19.40
2018-05-18T17:18:49.976Z,19.50
2018-05-18T17:21:16.890Z,19.50
2018-05-18T17:23:43.313Z,19.50
2018-05-18T17:26:09.596Z,19.50
2018-05-18T17:28:35.737Z,19.40
2018-05-18T17:31:01.943Z,19.20
2018-05-18T17:33:28.384Z,19.00
2018-05-18T17:35:54.676Z,18.90
2018-05-18T17:38:21.208Z,18.90
2018-05-18T17:40:47.512Z,18.80
2018-05-18T17:43:13.645Z,18.80
2018-05-18T17:45:39.922Z,18.70
2018-05-18T17:48:06.421Z,18.50
2018-05-18T17:50:32.810Z,18.50
2018-05-18T17:52:58.978Z,18.40
2018-05-18T17:55:25.112Z,18.30
2018-05-18T17:57:51.640Z,18.20
2018-05-18T18:00:17.818Z,18.20
2018-05-18T18:02:44.206Z,18.10
2018-05-18T18:05:10.373Z,18.00
2018-05-18T18:07:36.535Z,18.10
2018-05-18T18:10:02.711Z,18.10
2018-05-18T18:12:28.940Z,18.00
2018-05-18T18:14:55.071Z,18.00
2018-05-18T18:17:21.273Z,18.00
2018-05-18T18:19:48.112Z,18.00
2018-05-18T18:22:14.839Z,17.90
2018-05-18T18:24:41.422Z,17.90
2018-05-18T18:27:08.071Z,17.80
2018-05-18T18:29:34.411Z,17.80
2018-05-18T18:32:00.588Z,17.80
2018-05-18T18:34:26.735Z,17.80
2018-05-18T18:36:53.025Z,17.70
2018-05-18T18:39:19.194Z,17.70
2018-05-18T18:41:45.906Z,17.70
2018-05-18T18:44:12.111Z,17.50
2018-05-18T18:46:38.381Z,17.50
2018-05-18T18:49:04.590Z,17.40
2018-05-18T18:51:31.153Z,17.40
2018-05-18T18:53:57.297Z,17.40
2018-05-18T18:56:23.504Z,17.30
2018-05-18T18:58:50.017Z,17.20
2018-05-18T19:01:16.132Z,17.30
2018-05-18T19:03:42.289Z,17.20
2018-05-18T19:06:08.600Z,17.20
2018-05-18T19:08:34.851Z,17.10
2018-05-18T19:11:00.984Z,17.10
2018-05-18T19:13:27.287Z,17.10
2018-05-18T19:15:53.795Z,17.10
2018-05-18T19:18:20.038Z,17.00
2018-05-18T19:20:46.195Z,17.00
2018-05-18T19:23:12.422Z,17.00
2018-05-18T19:25:38.648Z,17.00
2018-05-18T19:28:04.819Z,17.00
2018-05-18T19:30:31.149Z,17.00
2018-05-18T19:32:57.773Z,16.90
2018-05-18T19:35:24.799Z,16.80
2018-05-18T19:37:51.030Z,16.80
2018-05-18T19:40:17.957Z,16.70
2018-05-18T19:42:44.170Z,16.70
2018-05-18T19:45:10.357Z,16.70
2018-05-18T19:47:36.553Z,16.70
2018-05-18T19:50:02.801Z,16.60
2018-05-18T19:52:28.835Z,16.60
2018-05-18T19:54:54.960Z,16.50
2018-05-18T19:57:21.081Z,16.40
2018-05-18T19:59:47.497Z,16.30
2018-05-18T20:02:13.748Z,16.30
2018-05-18T20:04:40.152Z,16.20
2018-05-18T20:07:06.250Z,16.20
2018-05-18T20:09:32.674Z,16.20
2018-05-18T20:11:59.080Z,16.20
2018-05-18T20:14:25.130Z,16.20
2018-05-18T20:16:51.421Z,16.10
2018-05-18T20:19:17.554Z,16.10
2018-05-18T20:21:44.494Z,16.10
2018-05-18T20:24:10.669Z,16.10
2018-05-18T20:26:36.843Z,16.10
2018-05-18T20:29:02.990Z,16.00
2018-05-18T20:31:29.176Z,15.90
2018-05-18T20:33:55.445Z,15.90
2018-05-18T20:36:21.561Z,15.90
2018-05-18T20:38:48.283Z,15.80
2018-05-18T20:41:14.508Z,15.70
2018-05-18T20:43:41.030Z,15.70
2018-05-18T20:46:07.191Z,15.60
2018-05-18T20:48:33.369Z,15.50
2018-05-18T20:50:59.648Z,15.50
2018-05-18T20:53:25.775Z,15.50
2018-05-18T20:55:52.047Z,15.50
2018-05-18T20:58:18.449Z,15.40
2018-05-18T21:00:44.658Z,15.40
2018-05-18T21:03:11.300Z,15.40
2018-05-18T21:05:37.527Z,15.40
2018-05-18T21:08:03.652Z,15.40
2018-05-18T21:10:29.984Z,15.40
2018-05-18T21:12:56.134Z,15.40
2018-05-18T21:15:22.269Z,15.30
2018-05-18T21:17:48.517Z,15.40
2018-05-18T21:20:15.490Z,15.40
2018-05-18T21:22:41.656Z,15.40
2018-05-18T21:25:07.861Z,15.40
2018-05-18T21:27:34.019Z,15.30
2018-05-18T21:30:00.187Z,15.30
2018-05-18T21:32:26.337Z,15.30
2018-05-18T21:34:52.638Z,15.20
2018-05-18T21:37:18.777Z,15.20
2018-05-18T21:39:45.126Z,15.30
2018-05-18T21:42:11.251Z,15.20
2018-05-18T21:44:37.480Z,15.30
2018-05-18T21:47:03.660Z,15.30
2018-05-18T21:49:30.406Z,15.30
2018-05-18T21:51:57.362Z,15.30
2018-05-18T21:54:24.227Z,15.30
2018-05-18T21:56:50.666Z,15.30
2018-05-18T21:59:16.787Z,15.20
2018-05-18T22:01:42.929Z,15.20
2018-05-18T22:04:09.043Z,15.30
2018-05-18T22:06:35.234Z,15.40
2018-05-18T22:09:01.289Z,15.50
2018-05-18T22:11:27.451Z,15.40
2018-05-18T22:13:53.696Z,15.40
2018-05-18T22:16:19.850Z,15.20
2018-05-18T22:18:45.975Z,15.10
2018-05-18T22:21:12.187Z,15.00
2018-05-18T22:23:38.221Z,15.00
2018-05-18T22:26:04.401Z,15.10
2018-05-18T22:28:30.483Z,15.20
2018-05-18T22:30:56.593Z,15.20
2018-05-18T22:33:23.441Z,15.00
2018-05-18T22:35:49.500Z,15.00
2018-05-18T22:38:15.614Z,14.90
2018-05-18T22:40:41.743Z,14.90
2018-05-18T22:43:07.874Z,14.80
2018-05-18T22:45:34.016Z,14.70
2018-05-18T22:48:00.123Z,14.40
2018-05-18T22:50:26.248Z,14.40
2018-05-18T22:52:52.377Z,14.30
2018-05-18T22:55:18.595Z,14.30
2018-05-18T22:57:44.726Z,14.30
2018-05-18T23:00:13.598Z,14.20
2018-05-18T23:02:39.768Z,14.30
2018-05-18T23:05:05.843Z,14.30
2018-05-18T23:07:31.959Z,14.30
2018-05-18T23:09:58.091Z,14.20
2018-05-18T23:12:24.172Z,14.10
2018-05-18T23:14:50.291Z,13.90
2018-05-18T23:17:16.388Z,13.90
2018-05-18T23:19:42.907Z,13.80
2018-05-18T23:22:11.019Z,13.80
2018-05-18T23:24:37.145Z,13.90
2018-05-18T23:27:03.311Z,13.90
2018-05-18T23:29:29.550Z,14.00
2018-05-18T23:31:55.898Z,14.00
2018-05-18T23:34:21.938Z,14.00
2018-05-18T23:36:48.064Z,14.00
2018-05-18T23:39:14.248Z,14.00
2018-05-18T23:41:40.345Z,14.10
2018-05-18T23:44:06.437Z,14.10
2018-05-18T23:46:32.543Z,14.20
2018-05-18T23:48:58.769Z,14.30
2018-05-18T23:51:24.909Z,14.20
2018-05-18T23:53:50.988Z,13.80
2018-05-18T23:56:17.847Z,13.30
2018-05-18T23:58:43.948Z,13.30
